首页
METAR-TAF:

METAR-TAF

机场 :

维多利亚, 马埃岛, 塞舌尔

塞舌尔国际机场

纬度: 04-40S, 经度: 055-31E, 海拔: 3米

当前天气观测

该预报发布于29分钟前的21:30 UTC
风速7节,风向西转西北
温度 28°C
湿度 79%
气压 1009 hPa
能见度10公里或以上

METAR: FSIA 172130Z AUTO 29007KT 9999 SCT017/// BKN022/// BKN084/// 28/24 Q1009

时间: 01:59 (21:59 UTC)

预报

该预报发布于4小时和59分钟前的17:00 UTC
预报有效从17日的 18点(UTC)到 18日的 18点(UTC)
风速15节,风向北转西北
能见度10公里或以上
散云层高于2200英尺
几率 40% :
短暂存在
从 17日的 20点(UTC)到 18日的 02点(UTC)
多云层高于1900英尺
小阵雨
成为
从 18日的 04点(UTC)到 18日的 06点(UTC)
风速10节,风向西北

TAF: FSIA 171700Z 1718/1818 33015KT 9999 SCT022 PROB40 TEMPO 1720/1802 -SHRA BKN019 BECMG 1804/1806 32010KT

超过4000个机场的气象观测和天气预报(METAR&TAF报告)。

可查询的气象台以黄色和红色小点在地图上表示。

将鼠标移到小点上方,可查看气象台名称。

然后点击查看天气观测和预报。

如需切换地图:点击带黑十字的绿色按钮放大地图;点击带横线的绿色按钮缩小地图;或者点击绿色箭头查看邻近地区的地图。


METAR-TAF: